createdAt,value
2018-02-21T00:01:05.555Z,0.20
2018-02-21T00:03:33.514Z,0.31
2018-02-21T00:06:01.528Z,0.32
2018-02-21T00:08:29.463Z,0.32
2018-02-21T00:10:57.496Z,0.44
2018-02-21T00:13:25.516Z,0.53
2018-02-21T00:15:53.478Z,0.57
2018-02-21T00:18:21.444Z,0.58
2018-02-21T00:20:49.411Z,0.67
2018-02-21T00:23:17.375Z,0.78
2018-02-21T00:25:45.355Z,0.74
2018-02-21T00:28:13.383Z,0.79
2018-02-21T00:30:41.410Z,0.81
2018-02-21T00:33:09.303Z,0.86
2018-02-21T00:35:37.244Z,0.86
2018-02-21T00:38:05.201Z,0.84
2018-02-21T00:40:33.234Z,0.86
2018-02-21T00:43:01.183Z,0.87
2018-02-21T00:45:29.970Z,0.92
2018-02-21T00:47:58.451Z,0.98
2018-02-21T00:50:27.748Z,1.04
2018-02-21T00:52:55.721Z,1.09
2018-02-21T00:55:23.652Z,0.95
2018-02-21T00:57:51.597Z,1.03
2018-02-21T01:00:19.532Z,0.96
2018-02-21T01:02:47.517Z,0.97
2018-02-21T01:05:15.530Z,1.04
2018-02-21T01:07:43.539Z,1.10
2018-02-21T01:10:11.456Z,1.06
2018-02-21T01:12:39.394Z,1.12
2018-02-21T01:15:07.451Z,1.23
2018-02-21T01:17:35.417Z,1.24
2018-02-21T01:20:03.357Z,1.29
2018-02-21T01:22:31.315Z,1.18
2018-02-21T01:24:59.283Z,1.33
2018-02-21T01:27:27.253Z,1.54
2018-02-21T01:29:55.225Z,1.39
2018-02-21T01:32:23.173Z,1.41
2018-02-21T01:34:51.102Z,1.39
2018-02-21T01:37:19.039Z,1.45
2018-02-21T01:39:46.997Z,1.40
2018-02-21T01:42:14.988Z,1.45
2018-02-21T01:44:42.931Z,1.47
2018-02-21T01:47:10.849Z,1.57
2018-02-21T01:49:38.799Z,1.50
2018-02-21T01:52:06.829Z,1.62
2018-02-21T01:57:08.161Z,1.55
2018-02-21T01:59:36.131Z,1.56
2018-02-21T02:02:04.071Z,1.58
2018-02-21T02:04:32.018Z,1.63
2018-02-21T02:07:00.073Z,1.68
2018-02-21T02:09:28.059Z,1.61
2018-02-21T02:11:56.027Z,1.51
2018-02-21T02:14:24.009Z,1.53
2018-02-21T02:16:51.962Z,1.51
2018-02-21T02:19:19.877Z,1.47
2018-02-21T02:21:47.954Z,1.54
2018-02-21T02:24:15.875Z,1.52
2018-02-21T02:26:43.789Z,1.66
2018-02-21T02:29:11.732Z,1.58
2018-02-21T02:31:39.650Z,1.68
2018-02-21T02:34:07.622Z,1.67
2018-02-21T02:36:35.640Z,1.70
2018-02-21T02:39:15.326Z,1.85
2018-02-21T02:41:43.277Z,1.66
2018-02-21T02:44:11.224Z,1.68
2018-02-21T02:46:39.158Z,1.72
2018-02-21T02:49:07.166Z,1.70
2018-02-21T02:51:35.132Z,1.78
2018-02-21T02:54:03.102Z,1.71
2018-02-21T02:56:31.043Z,1.93
2018-02-21T02:58:59.066Z,1.77
2018-02-21T03:01:26.991Z,1.73
2018-02-21T03:03:54.961Z,1.68
2018-02-21T03:06:22.914Z,1.67
2018-02-21T03:08:50.880Z,1.77
2018-02-21T03:11:18.833Z,1.85
2018-02-21T03:13:46.816Z,1.95
2018-02-21T03:16:14.788Z,1.97
2018-02-21T03:18:42.722Z,1.71
2018-02-21T03:21:10.692Z,1.67
2018-02-21T03:23:38.699Z,1.72
2018-02-21T03:26:07.071Z,1.76
2018-02-21T03:28:35.042Z,1.72
2018-02-21T03:31:03.077Z,1.80
2018-02-21T03:33:31.002Z,1.82
2018-02-21T03:35:58.973Z,1.78
2018-02-21T03:38:26.914Z,1.80
2018-02-21T03:40:55.039Z,1.77
2018-02-21T03:43:22.946Z,1.77
2018-02-21T03:45:50.872Z,1.78
2018-02-21T03:48:18.821Z,1.90
2018-02-21T03:50:46.763Z,1.85
2018-02-21T03:53:14.748Z,1.76
2018-02-21T03:55:42.705Z,1.77
2018-02-21T03:58:10.677Z,1.72
2018-02-21T04:00:38.621Z,1.96
2018-02-21T04:03:06.627Z,1.88
2018-02-21T04:05:34.583Z,1.98
2018-02-21T04:08:02.594Z,1.86
2018-02-21T04:10:30.606Z,1.92
2018-02-21T04:12:58.539Z,1.98
2018-02-21T04:15:26.561Z,1.91
2018-02-21T04:17:54.539Z,1.91
2018-02-21T04:20:22.502Z,1.87
2018-02-21T04:22:50.469Z,1.84
2018-02-21T04:25:18.438Z,1.82
2018-02-21T04:27:46.406Z,1.76
2018-02-21T04:30:14.386Z,1.71
2018-02-21T04:32:42.347Z,1.70
2018-02-21T04:35:10.359Z,1.63
2018-02-21T04:37:38.291Z,1.57
2018-02-21T04:40:06.254Z,1.52
2018-02-21T04:42:34.438Z,1.58
2018-02-21T04:45:02.426Z,1.58
2018-02-21T04:47:30.464Z,1.54
2018-02-21T04:49:58.422Z,1.51
2018-02-21T04:52:26.457Z,1.47
2018-02-21T04:55:10.274Z,1.43
2018-02-21T04:57:43.957Z,1.68
2018-02-21T05:02:52.984Z,1.81
2018-02-21T05:05:20.911Z,1.90
2018-02-21T05:07:48.881Z,1.70
2018-02-21T05:10:16.852Z,1.63
2018-02-21T05:12:44.820Z,1.54
2018-02-21T05:15:12.789Z,1.46
2018-02-21T05:17:40.698Z,1.38
2018-02-21T05:20:08.691Z,1.26
2018-02-21T05:22:36.634Z,1.19
2018-02-21T05:25:04.582Z,1.13
2018-02-21T05:27:32.538Z,1.11
2018-02-21T05:30:00.539Z,1.12
2018-02-21T05:32:28.474Z,1.21
2018-02-21T05:34:56.545Z,1.06
2018-02-21T05:37:24.513Z,1.12
2018-02-21T05:39:52.460Z,1.06
2018-02-21T05:42:20.428Z,1.10
2018-02-21T05:44:48.364Z,1.05
2018-02-21T05:47:16.328Z,1.19
2018-02-21T05:49:44.256Z,1.20
2018-02-21T05:52:12.286Z,1.09
2018-02-21T05:54:40.220Z,1.02
2018-02-21T05:57:08.181Z,1.06
2018-02-21T05:59:36.136Z,1.01
2018-02-21T06:02:04.070Z,0.93
2018-02-21T06:04:32.031Z,0.92
2018-02-21T06:06:59.959Z,0.92
2018-02-21T06:09:27.913Z,0.90
2018-02-21T06:11:55.845Z,0.89
2018-02-21T06:14:23.819Z,0.93
2018-02-21T06:16:51.739Z,0.86
2018-02-21T06:19:19.690Z,0.91
2018-02-21T06:21:47.652Z,0.91
2018-02-21T06:24:15.566Z,0.93
2018-02-21T06:26:43.493Z,0.91
2018-02-21T06:29:11.531Z,0.92
2018-02-21T06:31:39.539Z,0.87
2018-02-21T06:34:07.453Z,0.82
2018-02-21T06:36:35.387Z,0.95
2018-02-21T06:39:03.322Z,0.86
2018-02-21T06:41:31.278Z,0.84
2018-02-21T06:43:59.222Z,0.93
2018-02-21T06:46:27.271Z,0.98
2018-02-21T06:48:55.186Z,0.98
2018-02-21T06:51:23.144Z,1.16
2018-02-21T06:53:51.070Z,1.35
2018-02-21T06:56:19.079Z,1.45
2018-02-21T06:58:47.096Z,1.64
2018-02-21T07:01:15.084Z,1.73
2018-02-21T07:03:43.074Z,1.82
2018-02-21T07:06:11.087Z,1.87
2018-02-21T07:08:39.075Z,1.71
2018-02-21T07:11:07.019Z,1.85
2018-02-21T07:13:34.965Z,1.98
2018-02-21T07:16:02.898Z,2.07
2018-02-21T07:18:31.048Z,2.21
2018-02-21T07:20:59.097Z,2.28
2018-02-21T07:23:27.050Z,2.55
2018-02-21T07:25:55.022Z,2.62
2018-02-21T07:28:23.080Z,2.80
2018-02-21T07:30:51.163Z,2.93
2018-02-21T07:33:19.098Z,3.03
2018-02-21T07:35:47.103Z,3.19
2018-02-21T07:38:15.071Z,3.17
2018-02-21T07:40:43.045Z,3.24
2018-02-21T07:43:11.003Z,3.16
2018-02-21T07:45:39.008Z,3.28
2018-02-21T07:48:07.014Z,3.35
2018-02-21T07:50:34.939Z,3.40
2018-02-21T07:53:02.894Z,3.49
2018-02-21T07:55:30.864Z,3.78
2018-02-21T07:57:58.803Z,3.78
2018-02-21T08:00:26.849Z,3.84
2018-02-21T08:02:54.786Z,3.94
2018-02-21T08:05:22.778Z,3.93
2018-02-21T08:07:50.754Z,4.03
2018-02-21T08:10:18.674Z,3.95
2018-02-21T08:12:46.626Z,3.82
2018-02-21T08:15:14.561Z,3.74
2018-02-21T08:17:42.497Z,3.87
2018-02-21T08:20:10.497Z,3.86
2018-02-21T08:22:38.466Z,3.60
2018-02-21T08:25:06.427Z,3.57
2018-02-21T08:27:34.374Z,3.61
2018-02-21T08:30:02.344Z,3.67
2018-02-21T08:32:30.279Z,3.53
2018-02-21T08:34:58.248Z,3.71
2018-02-21T08:37:26.214Z,3.77
2018-02-21T08:39:54.141Z,4.06
2018-02-21T08:42:22.178Z,4.01
2018-02-21T08:44:50.115Z,3.86
2018-02-21T08:47:18.106Z,4.03
2018-02-21T08:49:46.054Z,4.39
2018-02-21T08:52:14.022Z,4.28
2018-02-21T08:54:41.966Z,4.33
2018-02-21T08:57:09.914Z,4.33
2018-02-21T08:59:37.892Z,4.05
2018-02-21T09:02:05.820Z,3.95
2018-02-21T09:04:33.848Z,3.94
2018-02-21T09:07:01.780Z,3.94
2018-02-21T09:09:29.720Z,3.95
2018-02-21T09:11:57.712Z,3.88
2018-02-21T09:14:25.685Z,3.86
2018-02-21T09:16:53.603Z,3.90
2018-02-21T09:19:21.591Z,3.88
2018-02-21T09:21:49.556Z,3.87
2018-02-21T09:24:17.517Z,3.88
2018-02-21T09:26:45.466Z,3.98
2018-02-21T09:29:13.568Z,4.00
2018-02-21T09:31:41.559Z,4.27
2018-02-21T09:34:09.534Z,4.26
2018-02-21T09:36:37.487Z,4.46
2018-02-21T09:39:05.418Z,4.23
2018-02-21T09:41:33.408Z,4.30
2018-02-21T09:44:01.348Z,4.43
2018-02-21T09:46:29.329Z,4.54
2018-02-21T09:48:57.375Z,4.69
2018-02-21T09:51:25.359Z,4.79
2018-02-21T09:53:53.321Z,5.12
2018-02-21T09:56:21.279Z,5.37
2018-02-21T09:58:50.522Z,5.27
2018-02-21T10:01:18.494Z,5.08
2018-02-21T10:03:46.459Z,5.23
2018-02-21T10:06:14.412Z,5.27
2018-02-21T10:08:42.320Z,5.35
2018-02-21T10:11:10.371Z,5.25
2018-02-21T10:13:38.350Z,5.26
2018-02-21T10:16:06.341Z,5.49
2018-02-21T10:18:34.361Z,5.18
2018-02-21T10:21:02.339Z,5.22
2018-02-21T10:23:30.366Z,4.89
2018-02-21T10:25:58.390Z,5.28
2018-02-21T10:28:26.370Z,5.49
2018-02-21T10:30:54.647Z,5.80
2018-02-21T10:33:22.787Z,6.42
2018-02-21T10:35:50.814Z,7.13
2018-02-21T10:38:18.905Z,7.33
2018-02-21T10:40:46.924Z,7.78
2018-02-21T10:43:14.898Z,8.01
2018-02-21T10:45:43.670Z,7.29
2018-02-21T10:48:11.638Z,7.00
2018-02-21T10:50:39.588Z,6.84
2018-02-21T10:53:07.556Z,6.93
2018-02-21T10:55:35.568Z,6.82
2018-02-21T10:58:03.542Z,6.76
2018-02-21T11:00:37.175Z,6.95
2018-02-21T11:03:05.207Z,6.89
2018-02-21T11:05:33.224Z,6.72
2018-02-21T11:08:01.148Z,6.43
2018-02-21T11:10:29.113Z,5.99
2018-02-21T11:12:57.089Z,5.82
2018-02-21T11:15:25.091Z,5.83
2018-02-21T11:17:53.017Z,5.74
2018-02-21T11:20:21.098Z,5.24
2018-02-21T11:22:49.126Z,5.28
2018-02-21T11:25:17.189Z,5.17
2018-02-21T11:27:45.130Z,4.95
2018-02-21T11:30:13.039Z,4.96
2018-02-21T11:32:40.986Z,4.92
2018-02-21T11:35:09.058Z,4.71
2018-02-21T11:37:37.007Z,4.51
2018-02-21T11:40:05.062Z,4.61
2018-02-21T11:42:33.022Z,4.59
2018-02-21T11:45:01.033Z,4.46
2018-02-21T11:47:29.003Z,4.37
2018-02-21T11:49:56.979Z,4.32
2018-02-21T11:52:24.912Z,4.27
2018-02-21T11:54:52.879Z,4.12
2018-02-21T11:57:20.821Z,4.07
2018-02-21T11:59:48.770Z,4.03
2018-02-21T12:02:16.770Z,3.98
2018-02-21T12:04:44.776Z,3.97
2018-02-21T12:07:12.684Z,3.73
2018-02-21T12:09:40.639Z,3.78
2018-02-21T12:12:08.596Z,3.63
2018-02-21T12:14:36.552Z,3.59
2018-02-21T12:17:04.500Z,3.70
2018-02-21T12:19:32.429Z,3.46
2018-02-21T12:22:00.358Z,3.75
2018-02-21T12:24:28.300Z,4.09
2018-02-21T12:26:56.371Z,4.24
2018-02-21T12:29:24.982Z,4.46
2018-02-21T12:31:58.743Z,4.72
2018-02-21T12:34:26.657Z,4.65
2018-02-21T12:36:54.650Z,4.37
2018-02-21T12:39:28.388Z,4.12
2018-02-21T12:41:56.322Z,4.15
2018-02-21T12:44:24.337Z,4.52
2018-02-21T12:46:52.507Z,4.74
2018-02-21T12:49:20.571Z,4.63
2018-02-21T12:51:48.769Z,4.75
2018-02-21T12:54:16.805Z,4.56
2018-02-21T12:56:44.837Z,4.67
2018-02-21T12:59:12.849Z,4.61
2018-02-21T13:01:40.959Z,4.61
2018-02-21T13:04:09.035Z,4.76
2018-02-21T13:06:37.102Z,4.68
2018-02-21T13:09:05.170Z,4.81
2018-02-21T13:11:33.135Z,4.80
2018-02-21T13:14:01.152Z,4.74
2018-02-21T13:16:29.171Z,4.83
2018-02-21T13:18:57.156Z,4.97
2018-02-21T13:21:25.338Z,5.25
2018-02-21T13:23:53.402Z,5.51
2018-02-21T13:26:21.471Z,5.48
2018-02-21T13:28:49.550Z,5.66
2018-02-21T13:31:17.546Z,5.40
2018-02-21T13:33:45.573Z,5.50
2018-02-21T13:36:13.551Z,5.78
2018-02-21T13:38:41.667Z,5.93
2018-02-21T13:41:09.618Z,5.94
2018-02-21T13:43:37.589Z,5.96
2018-02-21T13:46:05.559Z,6.07
2018-02-21T13:48:33.584Z,6.17
2018-02-21T13:51:01.544Z,6.24
2018-02-21T13:53:29.543Z,6.06
2018-02-21T13:55:57.511Z,5.80
2018-02-21T13:58:25.519Z,5.79
2018-02-21T14:00:53.513Z,5.77
2018-02-21T14:03:21.606Z,5.53
2018-02-21T14:05:49.759Z,5.46
2018-02-21T14:08:17.876Z,5.32
2018-02-21T14:10:45.922Z,5.32
2018-02-21T14:13:13.897Z,5.06
2018-02-21T14:15:41.856Z,5.10
2018-02-21T14:18:09.831Z,5.08
2018-02-21T14:20:37.905Z,5.19
2018-02-21T14:23:05.851Z,5.56
2018-02-21T14:25:34.707Z,5.47
2018-02-21T14:28:03.555Z,5.49
2018-02-21T14:30:31.591Z,5.22
2018-02-21T14:32:59.675Z,4.95
2018-02-21T14:35:27.689Z,4.90
2018-02-21T14:37:55.719Z,4.67
2018-02-21T14:40:23.786Z,4.66
2018-02-21T14:42:51.760Z,4.78
2018-02-21T14:45:19.768Z,4.68
2018-02-21T14:47:47.715Z,4.61
2018-02-21T14:50:15.639Z,4.51
2018-02-21T14:52:43.610Z,4.58
2018-02-21T14:55:11.551Z,4.67
2018-02-21T14:57:39.509Z,4.45
2018-02-21T15:00:07.494Z,4.50
2018-02-21T15:02:35.435Z,4.43
2018-02-21T15:05:03.444Z,4.45
2018-02-21T15:07:31.407Z,4.59
2018-02-21T15:09:59.373Z,4.32
2018-02-21T15:12:27.290Z,4.21
2018-02-21T15:14:55.233Z,4.34
2018-02-21T15:17:23.224Z,4.48
2018-02-21T15:19:51.171Z,4.34
2018-02-21T15:22:19.127Z,4.30
2018-02-21T15:24:47.075Z,4.16
2018-02-21T15:27:15.036Z,4.28
2018-02-21T15:29:42.989Z,4.21
2018-02-21T15:32:10.962Z,4.22
2018-02-21T15:34:39.069Z,4.14
2018-02-21T15:37:06.980Z,4.10
2018-02-21T15:39:35.050Z,3.80
2018-02-21T15:42:03.076Z,3.86
2018-02-21T15:44:31.045Z,4.04
2018-02-21T15:46:58.999Z,3.80
2018-02-21T15:49:27.037Z,3.85
2018-02-21T15:51:55.103Z,3.72
2018-02-21T15:54:23.095Z,3.63
2018-02-21T15:56:51.081Z,3.55
2018-02-21T15:59:19.071Z,3.57
2018-02-21T16:01:47.079Z,3.53
2018-02-21T16:04:15.107Z,3.54
2018-02-21T16:06:43.080Z,3.53
2018-02-21T16:09:10.991Z,3.52
2018-02-21T16:11:38.996Z,3.35
2018-02-21T16:14:06.976Z,3.43
2018-02-21T16:16:34.959Z,3.34
2018-02-21T16:19:02.934Z,3.30
2018-02-21T16:21:30.865Z,3.26
2018-02-21T16:23:58.947Z,3.31
2018-02-21T16:26:26.906Z,3.31
2018-02-21T16:28:54.942Z,3.32
2018-02-21T16:31:22.846Z,3.31
2018-02-21T16:33:50.847Z,3.28
2018-02-21T16:36:18.767Z,3.38
2018-02-21T16:38:46.700Z,3.32
2018-02-21T16:41:14.634Z,3.18
2018-02-21T16:43:42.621Z,3.16
2018-02-21T16:46:10.548Z,3.03
2018-02-21T16:48:38.563Z,3.03
2018-02-21T16:51:06.491Z,2.99
2018-02-21T16:53:34.424Z,2.99
2018-02-21T16:56:02.416Z,2.91
2018-02-21T16:58:30.350Z,2.88
2018-02-21T17:00:58.310Z,2.87
2018-02-21T17:03:26.447Z,2.87
2018-02-21T17:05:54.395Z,2.71
2018-02-21T17:08:22.362Z,2.79
2018-02-21T17:10:50.282Z,2.68
2018-02-21T17:13:18.260Z,2.61
2018-02-21T17:15:46.190Z,2.68
2018-02-21T17:18:14.138Z,2.62
2018-02-21T17:20:42.186Z,2.65
2018-02-21T17:23:10.184Z,2.65
2018-02-21T17:25:38.141Z,2.50
2018-02-21T17:28:06.180Z,2.74
2018-02-21T17:30:34.196Z,3.00
2018-02-21T17:33:02.179Z,2.95
2018-02-21T17:35:30.187Z,3.09
2018-02-21T17:37:58.219Z,3.05
2018-02-21T17:40:26.392Z,2.94
2018-02-21T17:42:54.421Z,2.99
2018-02-21T17:45:22.442Z,2.65
2018-02-21T17:47:50.447Z,2.61
2018-02-21T17:50:18.432Z,2.62
2018-02-21T17:52:46.452Z,2.47
2018-02-21T17:55:14.395Z,2.46
2018-02-21T17:57:42.386Z,2.49
2018-02-21T18:00:10.338Z,2.44
2018-02-21T18:02:38.278Z,2.39
2018-02-21T18:05:06.270Z,2.44
2018-02-21T18:07:34.237Z,2.38
2018-02-21T18:10:02.213Z,2.36
2018-02-21T18:12:30.152Z,2.28
2018-02-21T18:14:58.067Z,2.29
2018-02-21T18:17:26.058Z,2.36
2018-02-21T18:19:54.216Z,2.47
2018-02-21T18:22:23.425Z,2.26
2018-02-21T18:24:51.432Z,2.23
2018-02-21T18:27:19.430Z,2.17
2018-02-21T18:29:47.346Z,2.24
2018-02-21T18:32:15.274Z,2.16
2018-02-21T18:34:43.220Z,2.14
2018-02-21T18:37:11.171Z,2.11
2018-02-21T18:39:39.570Z,2.20
2018-02-21T18:42:07.506Z,2.30
2018-02-21T18:44:35.531Z,2.27
2018-02-21T18:47:03.476Z,2.20
2018-02-21T18:49:31.974Z,2.19
2018-02-21T18:52:00.236Z,2.22
2018-02-21T18:54:28.987Z,2.17
2018-02-21T18:57:00.206Z,2.22
2018-02-21T18:59:28.161Z,2.27
2018-02-21T19:01:56.134Z,2.31
2018-02-21T19:04:24.606Z,2.23
2018-02-21T19:06:52.675Z,2.05
2018-02-21T19:09:21.225Z,2.02
2018-02-21T19:11:49.741Z,2.03
2018-02-21T19:14:17.764Z,2.00
2018-02-21T19:16:45.681Z,1.90
2018-02-21T19:19:13.860Z,1.84
2018-02-21T19:21:41.786Z,1.78
2018-02-21T19:24:10.211Z,1.76
2018-02-21T19:26:38.129Z,1.84
2018-02-21T19:29:06.081Z,1.79
2018-02-21T19:31:34.080Z,1.73
2018-02-21T19:34:02.830Z,1.82
2018-02-21T19:36:30.786Z,1.80
2018-02-21T19:38:58.757Z,1.69
2018-02-21T19:41:27.058Z,1.64
2018-02-21T19:43:55.067Z,1.64
2018-02-21T19:46:23.019Z,1.63
2018-02-21T19:48:50.987Z,1.54
2018-02-21T19:51:19.102Z,1.75
2018-02-21T19:53:47.030Z,2.00
2018-02-21T19:56:14.992Z,1.79
2018-02-21T19:58:43.109Z,1.76
2018-02-21T20:01:11.309Z,1.69
2018-02-21T20:03:39.272Z,1.65
2018-02-21T20:06:07.212Z,1.52
2018-02-21T20:08:36.203Z,1.46
2018-02-21T20:11:04.226Z,1.50
2018-02-21T20:13:32.246Z,1.48
2018-02-21T20:16:00.254Z,1.40
2018-02-21T20:18:28.305Z,1.47
2018-02-21T20:20:56.209Z,1.31
2018-02-21T20:23:24.226Z,1.24
2018-02-21T20:25:52.167Z,1.27
2018-02-21T20:28:20.106Z,1.26
2018-02-21T20:30:48.975Z,1.22
2018-02-21T20:33:17.161Z,1.27
2018-02-21T20:35:45.318Z,1.87
2018-02-21T20:38:13.339Z,2.07
2018-02-21T20:40:42.131Z,1.92
2018-02-21T20:43:10.056Z,1.62
2018-02-21T20:45:38.002Z,1.42
2018-02-21T20:48:05.944Z,1.40
2018-02-21T20:50:33.892Z,1.43
2018-02-21T20:53:01.964Z,1.29
2018-02-21T20:55:29.916Z,1.11
2018-02-21T20:57:58.134Z,1.04
2018-02-21T21:00:26.159Z,1.02
2018-02-21T21:02:54.142Z,1.07
2018-02-21T21:05:22.256Z,0.98
2018-02-21T21:07:50.190Z,0.97
2018-02-21T21:10:18.102Z,1.05
2018-02-21T21:12:46.102Z,1.02
2018-02-21T21:15:14.018Z,0.90
2018-02-21T21:17:41.988Z,0.79
2018-02-21T21:20:09.935Z,0.73
2018-02-21T21:22:37.909Z,0.69
2018-02-21T21:25:05.874Z,0.71
2018-02-21T21:27:33.945Z,0.64
2018-02-21T21:30:02.000Z,0.65
2018-02-21T21:32:31.294Z,0.67
2018-02-21T21:34:59.266Z,0.65
2018-02-21T21:37:27.201Z,0.51
2018-02-21T21:39:56.173Z,0.50
2018-02-21T21:42:24.163Z,0.47
2018-02-21T21:44:52.707Z,0.49
2018-02-21T21:47:20.720Z,0.45
2018-02-21T21:49:48.643Z,0.44
2018-02-21T21:52:16.705Z,0.43
2018-02-21T21:54:45.454Z,0.39
2018-02-21T21:57:13.746Z,0.40
2018-02-21T21:59:41.714Z,0.48
2018-02-21T22:02:09.701Z,0.43
2018-02-21T22:04:37.616Z,0.40
2018-02-21T22:07:05.592Z,0.34
2018-02-21T22:09:33.562Z,0.33
2018-02-21T22:12:01.489Z,0.34
2018-02-21T22:14:29.514Z,0.37
2018-02-21T22:16:57.423Z,0.34
2018-02-21T22:19:25.344Z,0.35
2018-02-21T22:21:53.313Z,0.25
2018-02-21T22:24:21.444Z,0.30
2018-02-21T22:26:49.418Z,0.15
2018-02-21T22:29:17.722Z,0.14
2018-02-21T22:31:45.704Z,0.20
2018-02-21T22:34:13.668Z,0.09
2018-02-21T22:36:41.740Z,0.94
2018-02-21T22:39:09.698Z,0.80
2018-02-21T22:41:37.715Z,0.66
2018-02-21T22:44:05.679Z,0.50
2018-02-21T22:46:33.646Z,0.46
2018-02-21T22:49:01.691Z,0.40
2018-02-21T22:51:29.700Z,0.42
2018-02-21T22:53:57.686Z,0.32
2018-02-21T22:56:25.653Z,0.36
2018-02-21T22:58:53.671Z,0.34
2018-02-21T23:01:21.640Z,0.33
2018-02-21T23:03:49.603Z,0.31
2018-02-21T23:06:17.688Z,0.37
2018-02-21T23:08:45.683Z,0.37
2018-02-21T23:11:13.630Z,0.37
2018-02-21T23:13:41.626Z,0.36
2018-02-21T23:16:10.582Z,0.39
2018-02-21T23:18:39.319Z,0.44
2018-02-21T23:21:07.246Z,0.45
2018-02-21T23:23:35.211Z,0.47
2018-02-21T23:26:03.152Z,0.51
2018-02-21T23:28:31.350Z,0.49
2018-02-21T23:30:59.394Z,0.45
2018-02-21T23:33:27.430Z,0.47
2018-02-21T23:35:55.370Z,0.50
2018-02-21T23:38:23.332Z,0.52
2018-02-21T23:40:51.364Z,0.53
2018-02-21T23:43:19.321Z,0.55
2018-02-21T23:45:47.291Z,0.64
2018-02-21T23:48:15.330Z,0.63
2018-02-21T23:50:43.319Z,0.75
2018-02-21T23:53:11.285Z,0.61
2018-02-21T23:55:39.210Z,0.58
2018-02-21T23:58:07.141Z,0.62
